East Jamaica, Vermont
Current Conditions -  °F | °C
As of 11:54 PM on Friday 24 Oct 2014 (Local Time) from KVSF Reporting Station
Overcast Overcast  
Wind Chill: 45°   Ceiling: 6000
Heat Index: 45°   Visibility: 10mi
Dew Point: 40°   Wind: 3mph
Humidity: 82%   Direction: NA
Pressure: 29.81"   Gusts: NA
Location:  43.1008°N, 72.8076°W
Report Text: KVSF 250354Z AUTO VRB03KT 10SM OVC060 07/04 A2981 RMK AO2 SLP096 T00720044
Loading
Personal Weather Stations






























Interactive Weather Map
Tropical Storm Tracking
New forecast layout! Learn more

10-Day Weather Forecast

Advertisements
Track Severe Weather on mobile